createdAt,value
2023-04-21T00:02:21.857Z,95275.00
2023-04-21T00:07:50.288Z,95267.00
2023-04-21T00:13:18.250Z,95254.00
2023-04-21T00:18:47.571Z,95256.00
2023-04-21T00:24:16.372Z,95247.00
2023-04-21T00:29:44.409Z,95248.00
2023-04-21T00:35:13.455Z,95246.00
2023-04-21T00:40:41.568Z,95248.00
2023-04-21T00:46:09.498Z,95241.00
2023-04-21T00:51:40.883Z,95232.00
2023-04-21T00:57:09.696Z,95228.00
2023-04-21T01:02:39.956Z,95240.00
2023-04-21T01:08:09.156Z,95217.00
2023-04-21T01:13:37.415Z,95222.00
2023-04-21T01:19:06.138Z,95233.00
2023-04-21T01:24:41.431Z,95224.00
2023-04-21T01:30:12.540Z,95225.00
2023-04-21T01:35:41.607Z,95231.00
2023-04-21T01:41:11.132Z,95228.00
2023-04-21T01:46:39.110Z,95239.00
2023-04-21T01:52:06.996Z,95230.00
2023-04-21T01:57:34.949Z,95228.00
2023-04-21T02:03:03.038Z,95222.00
2023-04-21T02:08:31.127Z,95225.00
2023-04-21T02:13:59.064Z,95220.00
2023-04-21T02:19:27.024Z,95229.00
2023-04-21T02:24:56.305Z,95215.00
2023-04-21T02:30:25.135Z,95211.00
2023-04-21T02:35:52.891Z,95204.00
2023-04-21T02:41:20.799Z,95202.00
2023-04-21T02:46:48.799Z,95195.00
2023-04-21T02:52:17.073Z,95185.00
2023-04-21T02:57:45.006Z,95189.00
2023-04-21T03:03:13.007Z,95189.00
2023-04-21T03:08:41.077Z,95195.00
2023-04-21T03:14:09.032Z,95208.00
2023-04-21T03:19:36.969Z,95196.00
2023-04-21T03:25:06.656Z,95206.00
2023-04-21T03:30:39.976Z,95202.00
2023-04-21T03:36:08.805Z,95208.00
2023-04-21T03:41:37.144Z,95188.00
2023-04-21T03:47:05.367Z,95190.00
2023-04-21T03:52:33.786Z,95202.00
2023-04-21T03:58:02.938Z,95195.00
2023-04-21T04:03:31.256Z,95202.00
2023-04-21T04:08:59.315Z,95197.00
2023-04-21T04:14:27.356Z,95206.00
2023-04-21T04:19:55.394Z,95213.00
2023-04-21T04:25:24.653Z,95225.00
2023-04-21T04:30:53.253Z,95213.00
2023-04-21T04:36:21.637Z,95198.00
2023-04-21T04:41:49.540Z,95206.00
2023-04-21T04:47:17.844Z,95213.00
2023-04-21T04:52:47.156Z,95201.00
2023-04-21T04:58:15.258Z,95208.00
2023-04-21T05:03:44.122Z,95212.00
2023-04-21T05:09:12.558Z,95215.00
2023-04-21T05:14:40.306Z,95226.00
2023-04-21T05:20:09.535Z,95238.00
2023-04-21T05:25:38.717Z,95240.00
2023-04-21T05:31:06.552Z,95240.00
2023-04-21T05:36:34.368Z,95243.00
2023-04-21T05:42:04.104Z,95241.00
2023-04-21T05:47:31.997Z,95238.00
2023-04-21T05:52:59.890Z,95228.00
2023-04-21T05:58:27.620Z,95240.00
2023-04-21T06:03:55.818Z,95229.00
2023-04-21T06:09:24.014Z,95227.00
2023-04-21T06:14:51.891Z,95231.00
2023-04-21T06:20:19.771Z,95228.00
2023-04-21T06:25:48.064Z,95227.00
2023-04-21T06:31:16.121Z,95232.00
2023-04-21T06:36:44.109Z,95225.00
2023-04-21T06:42:12.050Z,95220.00
2023-04-21T06:47:46.881Z,95222.00
2023-04-21T06:53:14.905Z,95223.00
2023-04-21T06:58:42.781Z,95230.00
2023-04-21T07:04:10.755Z,95228.00
2023-04-21T07:09:38.596Z,95225.00
2023-04-21T07:15:07.581Z,95230.00
2023-04-21T07:20:35.705Z,95224.00
2023-04-21T07:26:03.905Z,95215.00
2023-04-21T07:31:32.033Z,95215.00
2023-04-21T07:37:00.286Z,95215.00
2023-04-21T07:42:28.172Z,95222.00
2023-04-21T07:47:56.298Z,95228.00
2023-04-21T07:53:24.498Z,95220.00
2023-04-21T07:58:52.173Z,95222.00
2023-04-21T08:04:20.503Z,95223.00
2023-04-21T08:09:48.584Z,95233.00
2023-04-21T08:15:16.772Z,95224.00
2023-04-21T08:20:45.292Z,95234.00
2023-04-21T08:26:13.458Z,95236.00
2023-04-21T08:31:41.363Z,95228.00
2023-04-21T08:37:09.504Z,95235.00
2023-04-21T08:42:39.741Z,95232.00
2023-04-21T08:48:09.752Z,95243.00
2023-04-21T08:53:38.369Z,95238.00
2023-04-21T08:59:06.548Z,95232.00
2023-04-21T09:04:34.650Z,95228.00
2023-04-21T09:10:03.537Z,95225.00
2023-04-21T09:15:45.545Z,95212.00
2023-04-21T09:21:18.091Z,95223.00
2023-04-21T09:26:53.724Z,95224.00
2023-04-21T09:32:21.705Z,95222.00
2023-04-21T09:37:49.647Z,95214.00
2023-04-21T09:43:17.496Z,95218.00
2023-04-21T09:48:48.205Z,95219.00
2023-04-21T10:00:05.431Z,95204.00
2023-04-21T10:05:34.341Z,95212.00
2023-04-21T10:11:05.863Z,95211.00
2023-04-21T10:16:38.240Z,95212.00
2023-04-21T10:22:10.499Z,95185.00
2023-04-21T10:27:43.282Z,95185.00
2023-04-21T10:33:11.513Z,95186.00
2023-04-21T10:38:44.198Z,95188.00
2023-04-21T10:44:14.323Z,95183.00
2023-04-21T10:49:42.220Z,95184.00
2023-04-21T10:55:12.649Z,95186.00
2023-04-21T11:00:40.807Z,95175.00
2023-04-21T11:06:18.710Z,95174.00
2023-04-21T11:11:58.531Z,95163.00
2023-04-21T11:17:26.678Z,95158.00
2023-04-21T11:22:57.471Z,95162.00
2023-04-21T11:28:25.433Z,95159.00
2023-04-21T11:33:55.652Z,95154.00
2023-04-21T11:39:23.926Z,95143.00
2023-04-21T11:44:56.618Z,95144.00
2023-04-21T11:50:37.137Z,95141.00
2023-04-21T11:56:06.387Z,95145.00
2023-04-21T12:01:34.853Z,95152.00
2023-04-21T12:07:04.638Z,95149.00
2023-04-21T12:12:35.298Z,95146.00
2023-04-21T12:18:13.715Z,95149.00
2023-04-21T12:23:46.313Z,95154.00
2023-04-21T12:29:14.523Z,95159.00
2023-04-21T12:34:45.912Z,95149.00
2023-04-21T12:40:14.072Z,95165.00
2023-04-21T12:45:44.470Z,95159.00
2023-04-21T12:51:18.825Z,95147.00
2023-04-21T12:56:55.140Z,95141.00
2023-04-21T13:02:23.808Z,95134.00
2023-04-21T13:07:51.716Z,95134.00
2023-04-21T13:13:20.832Z,95134.00
2023-04-21T13:18:48.737Z,95128.00
2023-04-21T13:24:16.511Z,95119.00
2023-04-21T13:29:47.710Z,95127.00
2023-04-21T13:35:15.583Z,95119.00
2023-04-21T13:40:43.661Z,95116.00
2023-04-21T13:46:14.576Z,95124.00
2023-04-21T13:51:45.486Z,95108.00
2023-04-21T13:57:13.790Z,95098.00
2023-04-21T14:02:44.729Z,95084.00
2023-04-21T14:08:12.968Z,95092.00
2023-04-21T14:13:56.032Z,95091.00
2023-04-21T14:19:32.780Z,95082.00
2023-04-21T14:25:10.445Z,95061.00
2023-04-21T14:30:55.490Z,95014.00
2023-04-21T14:37:16.235Z,95004.00
2023-04-21T14:43:04.098Z,95008.00
2023-04-21T14:48:33.283Z,94990.00
2023-04-21T14:54:18.074Z,95003.00
2023-04-21T14:59:46.852Z,95035.00
2023-04-21T15:05:15.262Z,95042.00
2023-04-21T15:10:43.126Z,95040.00
2023-04-21T15:16:11.187Z,95012.00
2023-04-21T15:21:39.443Z,95052.00
2023-04-21T15:27:07.219Z,95062.00
2023-04-21T15:32:35.121Z,95057.00
2023-04-21T15:38:03.351Z,95047.00
2023-04-21T15:43:31.313Z,95050.00
2023-04-21T15:48:59.256Z,95052.00
2023-04-21T15:54:27.740Z,95041.00
2023-04-21T15:59:55.982Z,95030.00
2023-04-21T16:05:27.575Z,95029.00
2023-04-21T16:10:58.025Z,95033.00
2023-04-21T16:16:27.208Z,95023.00
2023-04-21T16:21:56.569Z,95026.00
2023-04-21T16:27:26.905Z,95028.00
2023-04-21T16:32:54.926Z,95022.00
2023-04-21T16:38:27.067Z,95032.00
2023-04-21T16:43:55.179Z,95021.00
2023-04-21T16:49:23.254Z,95028.00
2023-04-21T16:54:52.320Z,95022.00
2023-04-21T17:00:20.851Z,95016.00
2023-04-21T17:05:49.123Z,95021.00
2023-04-21T17:11:17.051Z,95021.00
2023-04-21T17:16:46.079Z,95023.00
2023-04-21T17:22:14.142Z,95028.00
2023-04-21T17:27:42.464Z,95032.00
2023-04-21T17:33:17.034Z,95036.00
2023-04-21T17:38:46.202Z,95039.00
2023-04-21T17:44:14.356Z,95040.00
2023-04-21T17:49:42.389Z,95042.00
2023-04-21T17:55:10.614Z,95044.00
2023-04-21T18:00:38.583Z,95043.00
2023-04-21T18:06:07.450Z,95046.00
2023-04-21T18:11:35.881Z,95054.00
2023-04-21T18:17:03.859Z,95049.00
2023-04-21T18:22:33.187Z,95063.00
2023-04-21T18:28:01.317Z,95075.00
2023-04-21T18:33:29.477Z,95072.00
2023-04-21T18:38:57.685Z,95077.00
2023-04-21T18:44:26.354Z,95078.00
2023-04-21T18:50:01.460Z,95084.00
2023-04-21T18:55:30.636Z,95083.00
2023-04-21T19:00:58.458Z,95091.00
2023-04-21T19:06:27.982Z,95103.00
2023-04-21T19:11:56.036Z,95107.00
2023-04-21T19:17:24.130Z,95108.00
2023-04-21T19:22:53.279Z,95114.00
2023-04-21T19:28:21.698Z,95112.00
2023-04-21T19:33:52.375Z,95118.00
2023-04-21T19:39:20.358Z,95145.00
2023-04-21T19:44:48.209Z,95165.00
2023-04-21T19:50:16.319Z,95173.00
2023-04-21T19:55:44.494Z,95181.00
2023-04-21T20:01:12.941Z,95184.00
2023-04-21T20:06:42.570Z,95185.00
2023-04-21T20:12:10.520Z,95194.00
2023-04-21T20:17:38.937Z,95185.00
2023-04-21T20:23:06.950Z,95193.00
2023-04-21T20:28:34.886Z,95191.00
2023-04-21T20:34:03.062Z,95180.00
2023-04-21T20:39:30.950Z,95179.00
2023-04-21T20:45:02.361Z,95168.00
2023-04-21T20:50:30.453Z,95168.00
2023-04-21T20:55:58.445Z,95168.00
2023-04-21T21:01:28.042Z,95175.00
2023-04-21T21:06:58.642Z,95161.00
2023-04-21T21:12:26.532Z,95163.00
2023-04-21T21:18:06.740Z,95161.00
2023-04-21T21:23:35.671Z,95166.00
2023-04-21T21:29:03.453Z,95157.00
2023-04-21T21:34:31.405Z,95159.00
2023-04-21T21:40:00.550Z,95145.00
2023-04-21T21:45:28.702Z,95145.00
2023-04-21T21:50:56.551Z,95151.00
2023-04-21T21:56:25.950Z,95140.00
2023-04-21T22:01:53.896Z,95143.00
2023-04-21T22:07:25.214Z,95141.00
2023-04-21T22:12:56.106Z,95143.00
2023-04-21T22:18:24.940Z,95149.00
2023-04-21T22:23:53.154Z,95143.00
2023-04-21T22:29:24.168Z,95142.00
2023-04-21T22:34:52.065Z,95149.00
2023-04-21T22:40:19.998Z,95152.00
2023-04-21T22:45:47.960Z,95159.00
2023-04-21T22:51:18.383Z,95166.00
2023-04-21T22:56:46.189Z,95156.00
2023-04-21T23:02:14.493Z,95148.00
2023-04-21T23:07:42.277Z,95153.00
2023-04-21T23:13:10.135Z,95149.00
2023-04-21T23:18:37.943Z,95150.00
2023-04-21T23:24:06.126Z,95143.00
2023-04-21T23:29:34.054Z,95139.00
2023-04-21T23:35:02.047Z,95150.00
2023-04-21T23:40:29.937Z,95151.00
2023-04-21T23:45:58.297Z,95145.00
2023-04-21T23:51:27.140Z,95146.00
2023-04-21T23:56:55.878Z,95145.00
